Airfield :
LOGIN :

Register | Disclaimer

   EN    FR    IT 

 










Legend :    VFR   Marginal VFR   IFR   Intensive IFR   Very Intensive IFR
Visi :
Ceiling :
>= 8 km
>= 3000ft
5 to 8 km
1000 to 3000 ft
1500m to 5 km
500 to 1000 ft
800 to 1500m
200 to 500 ft
< 800m
< 200 ft
Symbols :   Thunderstorms  Fog  Heavy snow  Heavy precipitations  Wind > 20 kt
SIGMETs :     Misc.  Thunderstorms  Icing  Turbulence  Mountain Waves  Volcanic Ashes







- Airport Elevation : 219 ft
- IATA code : DNR
- Download approach charts


LFRD - Dinard

CURRENT METAR :
  • 242100Z AUTO 01004KT 330V040 9999 ///CB 14/12 Q1018 TEMPO VRB15G30KT 2000 TSRAGR BKN002 BKN060TCU

EXPIRED METARs :
  • 242030Z AUTO 35006KT 320V020 9999 SCT004/// SCT020/// OVC110/// ///TCU 14/13 Q1017 TEMPO VRB15G30KT 2000 TSRAGR BKN060CB
  • 242000Z AUTO 36008KT 310V040 9999 FEW005 OVC110 15/14 Q1017 TEMPO VRB15G30KT 2000 TSRAGR BKN060CB
  • 241930Z AUTO 34006KT 9000 -RA SCT002/// SCT020/// OVC098/// ///TCU 15/14 Q1017 TEMPO VRB15G30KT 2000 TSRAGR BKN004 BKN060CB
  • 241900Z AUTO 30007KT 260V330 5000 -RA BR SCT003/// BKN048/// OVC058/// ///CB 15/15 Q1018 TEMPO VRB15G30KT 2000 TSRAGR BKN004 BKN060CB
  • 241830Z AUTO 32005KT 6000 -RA BKN005/// BKN019/// OVC050/// ///CB 15/15 Q1018 TEMPO VRB15G30KT 2000 TSRAGR

TAF AMD TAF LFRD
Valid from the 24 at 19:00 until the 25 at 18:00 UTC


241929Z 2419/2518 35005KT 9999 SCT030
TEMPO 2419/2508 4000 SHRA BKN002 BKN060TCU
PROB40
TEMPO 2419/2503 VRB15G30KT 2000 TSRAGR BKN060CB
TEMPO 2508/2511 BKN005
ATIS : +33 2 99 16 81 50
No reported NOTAMs for that airfield.
2 SIGMETs reported for the Brest FIR (LFRR) :
 
Embedded thunderstorms and hail
LFRR SIGMET 8 VALID 242300/250300 LFPW
LFRR BREST FIR/UIR EMBD TSGR FCST WI N5000 W00215 - N5000 W00200 - N5000 W00015 - N4830 W00015 - N4830 W00145 - N5000 W00215 TOP FL380 MOV NE 20KT NC=
Embedded thunderstorms and hail
LFRR SIGMET 7 VALID 241900/242300 LFPW
LFRR BREST FIR/UIR EMBD TSGR FCST WI N4915 W00015 - N4715 W00015 - N4815 W00145 - N4915 W00015 TOP FL360 MOV N 20KT INTSF=



MET'MAP, your aeronautical weather chart ! - Copyright ORBIFLY December 2007 - Disclaimer

ORBIFLY MET'MAP TEAM :

Programming & Development : Alexandra Zaïnal
Concept & Development : Baudouin d'Aumeries
Co-Development & Prog : Marc-Olivier Méhu
Technical & hardware support : Manuel Goepfert

Contact : metmap@orbifly.com




SOURCES & CREDITS :

   NOAA